.
WxDataArchive / Data Records for 2014-12-06
2014-12-05 December 2014 2014-12-07

Data Records for Saturday, 06 December 2014

Time	Temp	Chill	HIndex	Humid	Dewpt	 Wind 	HiWind	WindDir	Rain 	Barom
-----	----	-----	------	-----	-----	------	------	-------	-----	-----
00:00	35.6	35.6	35.6	92	33.5	0	1	90	0.00	30.160 
00:05	35.6	35.6	35.6	92	33.5	0	1	90	0.00	30.160 
00:10	35.6	35.6	35.6	92	33.5	0	1	90	0.01	30.160 
00:15	35.6	35.6	35.6	92	33.5	0	1	90	0.00	30.155 
00:20	35.5	35.5	35.5	92	33.4	0	1	90	0.00	30.155 
00:25	35.5	35.5	35.5	92	33.4	0	1	90	0.00	30.155 
00:30	35.3	35.3	35.3	92	33.2	0	2	90	0.00	30.153 
00:35	35.3	35.3	35.3	92	33.2	0	4	90	0.00	30.153 
00:40	35.2	35.2	35.2	92	33.1	0	2	90	0.00	30.153 
00:45	35.2	35.2	35.2	92	33.1	0	2	90	0.00	30.156 
00:50	35.2	35.2	35.2	92	33.1	0	4	90	0.00	30.156 
00:55	35.2	35.2	35.2	92	33.1	0	3	90	0.00	30.156 
01:00	35.0	35.0	35.0	92	32.9	0	1	90	0.00	30.156 
01:05	35.0	35.0	35.0	92	32.9	0	3	90	0.00	30.156 
01:10	35.0	35.0	35.0	92	32.9	0	2	90	0.01	30.156 
01:15	35.0	35.0	35.0	91	32.6	0	1	90	0.00	30.159 
01:20	35.0	35.0	35.0	91	32.6	0	1	90	0.00	30.159 
01:25	35.0	35.0	35.0	91	32.6	0	0	---	0.00	30.159 
01:30	35.0	35.0	35.0	91	32.6	0	1	90	0.00	30.164 
01:35	35.0	35.0	35.0	91	32.6	0	0	---	0.00	30.164 
01:40	35.0	35.0	35.0	91	32.6	0	3	90	0.00	30.164 
01:45	35.0	35.0	35.0	91	32.6	0	0	---	0.00	30.170 
01:50	35.0	35.0	35.0	91	32.6	0	0	---	0.00	30.170 
01:55	35.0	35.0	35.0	91	32.6	0	1	90	0.00	30.170 
02:00	35.0	35.0	35.0	91	32.6	0	0	---	0.00	30.168 
02:05	35.0	35.0	35.0	91	32.6	0	0	---	0.00	30.168 
02:10	35.0	35.0	35.0	91	32.6	0	0	---	0.00	30.168 
02:15	35.0	35.0	35.0	91	32.6	0	0	---	0.00	30.171 
02:20	35.0	35.0	35.0	91	32.6	0	1	90	0.00	30.171 
02:25	35.0	35.0	35.0	91	32.6	0	1	90	0.00	30.171 
02:30	35.0	35.0	35.0	91	32.6	0	0	---	0.00	30.175 
02:35	35.0	35.0	35.0	91	32.6	0	0	---	0.00	30.175 
02:40	35.0	35.0	35.0	91	32.6	0	0	---	0.00	30.175 
02:45	35.0	35.0	35.0	92	32.9	0	0	---	0.00	30.174 
02:50	35.0	35.0	35.0	92	32.9	0	0	---	0.00	30.174 
02:55	35.0	35.0	35.0	92	32.9	0	0	---	0.00	30.174 
03:00	35.0	35.0	35.0	92	32.9	0	1	90	0.00	30.171 
03:05	35.0	35.0	35.0	92	32.9	0	0	---	0.00	30.171 
03:10	35.0	35.0	35.0	92	32.9	0	2	90	0.01	30.171 
03:15	35.0	35.0	35.0	92	32.9	0	1	90	0.00	30.176 
03:20	35.0	35.0	35.0	92	32.9	0	3	90	0.00	30.176 
03:25	35.0	35.0	35.0	92	32.9	0	1	45	0.00	30.176 
03:30	35.0	35.0	35.0	92	32.9	0	0	---	0.00	30.182 
03:35	35.0	35.0	35.0	92	32.9	0	2	45	0.00	30.182 
03:40	35.0	35.0	35.0	92	32.9	0	1	45	0.00	30.182 
03:45	35.0	35.0	35.0	92	32.9	0	1	45	0.00	30.177 
03:50	35.0	35.0	35.0	92	32.9	0	0	---	0.00	30.177 
03:55	35.0	35.0	35.0	92	32.9	0	1	45	0.01	30.177 
04:00	35.0	35.0	35.0	92	32.9	0	2	45	0.00	30.184 
04:05	35.0	35.0	35.0	92	32.9	0	1	45	0.00	30.184 
04:10	35.0	35.0	35.0	92	32.9	0	3	45	0.00	30.184 
04:15	35.0	35.0	35.0	92	32.9	0	2	45	0.00	30.188 
04:20	35.0	35.0	35.0	91	32.6	0	2	45	0.00	30.188 
04:25	34.9	34.9	34.9	91	32.5	0	2	45	0.00	30.188 
04:30	34.9	34.9	34.9	91	32.5	0	2	45	0.00	30.184 
04:35	34.9	34.9	34.9	91	32.5	0	4	270	0.00	30.184 
04:40	34.9	34.9	34.9	91	32.5	0	2	270	0.00	30.184 
04:45	34.9	34.9	34.9	91	32.5	1	4	315	0.00	30.185 
04:50	34.9	34.9	34.9	90	32.3	1	3	315	0.00	30.185 
04:55	34.9	34.9	34.9	90	32.3	1	3	315	0.00	30.185 
05:00	34.9	34.9	34.9	90	32.3	1	3	292	0.00	30.192 
05:05	34.9	34.9	34.9	89	32.0	1	5	338	0.00	30.192 
05:10	34.9	34.9	34.9	89	32.0	1	3	0	0.00	30.192 
05:15	35.0	35.0	35.0	89	32.1	1	4	0	0.00	30.199 
05:20	35.0	35.0	35.0	88	31.8	1	3	0	0.00	30.199 
05:25	35.0	35.0	35.0	88	31.8	0	4	0	0.00	30.199 
05:30	35.2	35.2	35.2	88	32.0	1	4	0	0.00	30.203 
05:35	35.2	35.2	35.2	88	32.0	1	5	45	0.00	30.203 
05:40	35.2	35.2	35.2	87	31.7	2	5	338	0.00	30.203 
05:45	35.3	35.3	35.3	87	31.8	1	5	315	0.00	30.202 
05:50	35.3	35.3	35.3	86	31.5	1	6	338	0.00	30.202 
05:55	35.3	35.3	35.3	86	31.5	1	5	338	0.00	30.202 
06:00	35.5	35.5	35.5	86	31.7	2	6	338	0.00	30.209 
06:05	35.5	35.5	35.5	85	31.4	1	4	338	0.00	30.209 
06:10	35.5	35.5	35.5	85	31.4	1	5	0	0.00	30.209 
06:15	35.5	35.5	35.5	85	31.4	1	5	338	0.00	30.219 
06:20	35.6	35.6	35.6	85	31.5	2	4	338	0.00	30.219 
06:25	35.6	35.6	35.6	85	31.5	1	5	338	0.00	30.219 
06:30	35.6	35.6	35.6	85	31.5	1	5	292	0.00	30.227 
06:35	35.8	35.8	35.8	85	31.7	2	4	338	0.00	30.227 
06:40	35.9	35.9	35.9	85	31.8	1	4	338	0.00	30.227 
06:45	35.9	35.9	35.9	85	31.8	1	4	0	0.00	30.234 
06:50	35.9	35.9	35.9	85	31.8	1	5	338	0.00	30.234 
06:55	35.9	35.9	35.9	85	31.8	2	5	338	0.00	30.234 
07:00	36.0	36.0	36.0	85	31.9	2	5	270	0.00	30.237 
07:05	36.0	36.0	36.0	85	31.9	1	5	338	0.00	30.237 
07:10	36.0	36.0	36.0	85	31.9	1	4	0	0.00	30.237 
07:15	36.0	36.0	36.0	85	31.9	2	7	315	0.00	30.250 
07:20	36.0	36.0	36.0	85	31.9	2	5	338	0.00	30.250 
07:25	36.0	36.0	36.0	85	31.9	2	6	315	0.00	30.250 
07:30	36.0	36.0	36.0	85	31.9	1	4	338	0.00	30.254 
07:35	35.9	35.9	35.9	85	31.8	1	3	315	0.00	30.254 
07:40	35.9	35.9	35.9	85	31.8	2	6	0	0.00	30.254 
07:45	35.8	35.8	35.8	85	31.7	1	5	338	0.00	30.255 
07:50	35.8	35.8	35.8	85	31.7	1	6	338	0.00	30.255 
07:55	35.6	35.6	35.6	85	31.5	1	5	338	0.00	30.255 
08:00	35.6	35.6	35.6	85	31.5	1	6	338	0.00	30.267 
08:05	35.5	35.5	35.5	85	31.4	1	4	315	0.00	30.267 
08:10	35.5	35.5	35.5	85	31.4	2	7	338	0.00	30.267 
08:15	35.5	35.5	35.5	84	31.2	1	4	315	0.00	30.284 
08:20	35.5	35.5	35.5	84	31.2	0	4	315	0.00	30.284 
08:25	35.3	35.3	35.3	84	31.0	0	2	270	0.00	30.284 
08:30	35.2	35.2	35.2	84	30.9	1	3	270	0.00	30.287 
08:35	35.2	35.2	35.2	84	30.9	1	6	22	0.00	30.287 
08:40	35.0	35.0	35.0	84	30.7	0	2	338	0.00	30.287 
08:45	35.0	35.0	35.0	84	30.7	1	6	315	0.00	30.302 
08:50	35.0	35.0	35.0	83	30.4	1	3	292	0.00	30.302 
08:55	35.0	35.0	35.0	83	30.4	1	4	338	0.00	30.302 
09:00	35.0	35.0	35.0	83	30.4	1	3	0	0.00	30.310 
09:05	35.0	35.0	35.0	83	30.4	1	4	0	0.00	30.310 
09:10	35.0	35.0	35.0	83	30.4	0	2	338	0.00	30.310 
09:15	35.0	35.0	35.0	82	30.1	1	4	292	0.00	30.321 
09:20	35.0	35.0	35.0	82	30.1	1	4	292	0.00	30.321 
09:25	35.0	35.0	35.0	81	29.8	1	9	22	0.00	30.321 
09:30	35.0	35.0	35.0	81	29.8	1	4	0	0.00	30.331 
09:35	35.0	35.0	35.0	81	29.8	1	5	338	0.00	30.331 
09:40	35.0	35.0	35.0	80	29.5	2	5	338	0.00	30.331 
09:45	35.0	35.0	35.0	79	29.2	1	5	338	0.00	30.337 
09:50	35.0	35.0	35.0	79	29.2	1	5	315	0.00	30.337 
09:55	35.2	35.2	35.2	78	29.0	2	6	338	0.00	30.337 
10:00	35.2	35.2	35.2	78	29.0	1	4	338	0.00	30.348 
10:05	35.3	35.3	35.3	78	29.1	1	4	338	0.00	30.348 
10:10	35.3	35.3	35.3	78	29.1	1	7	338	0.00	30.348 
10:15	35.5	35.5	35.5	78	29.3	2	6	0	0.00	30.356 
10:20	35.8	35.8	35.8	77	29.3	2	9	0	0.00	30.356 
10:25	35.9	35.9	35.9	76	29.1	2	7	338	0.00	30.356 
10:30	36.0	36.0	36.0	75	28.9	1	4	0	0.00	30.362 
10:35	36.2	36.2	36.2	75	29.1	2	7	315	0.00	30.362 
10:40	36.2	36.2	36.2	75	29.1	2	5	338	0.00	30.362 
10:45	36.3	36.3	36.3	75	29.1	1	7	338	0.00	30.364 
10:50	36.3	36.3	36.3	75	29.1	1	6	338	0.00	30.364 
10:55	36.3	36.3	36.3	75	29.1	3	7	338	0.00	30.364 
11:00	36.5	36.5	36.5	76	29.7	2	6	0	0.00	30.371 
11:05	36.8	36.8	36.8	76	30.0	1	5	22	0.00	30.371 
11:10	37.0	37.0	37.0	76	30.2	2	6	338	0.00	30.371 
11:15	37.2	37.2	37.2	75	30.0	3	10	338	0.00	30.375 
11:20	37.3	37.3	37.3	75	30.1	2	12	338	0.00	30.375 
11:25	37.8	37.8	37.8	76	30.9	2	9	338	0.00	30.375 
11:30	38.0	38.0	38.0	75	30.8	2	12	0	0.00	30.377 
11:35	38.3	38.3	38.3	75	31.1	2	9	0	0.00	30.377 
11:40	38.6	38.6	38.6	76	31.7	1	3	0	0.00	30.377 
11:45	38.5	38.5	38.5	75	31.3	3	6	45	0.00	30.377 
11:50	38.6	38.6	38.6	77	32.0	1	7	22	0.00	30.377 
11:55	38.3	38.3	38.3	76	31.4	3	8	338	0.00	30.377 
12:00	38.3	38.3	38.3	76	31.4	3	6	338	0.00	30.383 
12:05	38.2	38.2	38.2	77	31.6	2	7	315	0.00	30.383 
12:10	38.0	38.0	38.0	77	31.4	3	10	315	0.00	30.383 
12:15	38.2	38.2	38.2	77	31.6	1	4	22	0.00	30.388 
12:20	38.2	38.2	38.2	77	31.6	1	4	0	0.00	30.388 
12:25	38.2	38.2	38.2	77	31.6	1	6	338	0.00	30.388 
12:30	38.0	38.0	38.0	77	31.4	2	7	0	0.00	30.390 
12:35	38.0	38.0	38.0	77	31.4	2	6	338	0.00	30.390 
12:40	37.9	37.9	37.9	77	31.3	1	8	338	0.00	30.390 
12:45	38.0	38.0	38.0	77	31.4	1	5	292	0.00	30.395 
12:50	38.0	38.0	38.0	77	31.4	1	7	315	0.00	30.395 
12:55	38.2	38.2	38.2	77	31.6	1	6	45	0.00	30.395 
13:00	38.2	38.2	38.2	77	31.6	2	5	0	0.00	30.396 
13:05	38.3	38.3	38.3	77	31.7	1	5	0	0.00	30.396 
13:10	38.5	38.5	38.5	77	31.9	1	4	22	0.00	30.396 
13:15	38.6	38.6	38.6	77	32.0	2	6	22	0.00	30.392 
13:20	38.6	38.6	38.6	77	32.0	2	4	338	0.00	30.392 
13:25	38.5	38.5	38.5	77	31.9	2	7	0	0.00	30.392 
13:30	38.5	38.5	38.5	77	31.9	1	4	338	0.00	30.399 
13:35	38.6	38.6	38.6	77	32.0	1	6	338	0.00	30.399 
13:40	38.6	38.6	38.6	77	32.0	1	4	68	0.00	30.399 
13:45	38.5	38.5	38.5	76	31.6	2	7	338	0.00	30.394 
13:50	38.3	38.3	38.3	76	31.4	2	9	292	0.00	30.394 
13:55	38.3	38.3	38.3	76	31.4	2	6	315	0.00	30.394 
14:00	38.2	38.2	38.2	75	31.0	2	5	22	0.00	30.401 
14:05	38.2	38.2	38.2	75	31.0	1	4	0	0.00	30.401 
14:10	38.0	38.0	38.0	74	30.5	2	9	338	0.00	30.401 
14:15	38.0	38.0	38.0	73	30.1	2	8	338	0.00	30.401 
14:20	38.0	38.0	38.0	74	30.5	1	5	338	0.00	30.401 
14:25	38.0	38.0	38.0	74	30.5	1	4	68	0.00	30.401 
14:30	38.0	38.0	38.0	73	30.1	1	5	315	0.00	30.409 
14:35	38.0	38.0	38.0	73	30.1	0	3	112	0.00	30.409 
14:40	38.0	38.0	38.0	73	30.1	1	3	112	0.00	30.409 
14:45	38.0	38.0	38.0	72	29.8	1	4	0	0.00	30.417 
14:50	37.9	37.9	37.9	72	29.7	1	4	338	0.00	30.417 
14:55	37.8	37.8	37.8	71	29.3	1	6	315	0.00	30.417 
15:00	37.8	37.8	37.8	72	29.6	1	3	68	0.00	30.425 
15:05	37.8	37.8	37.8	72	29.6	0	3	0	0.00	30.425 
15:10	37.8	37.8	37.8	71	29.3	1	5	338	0.00	30.425 
15:15	37.8	37.8	37.8	71	29.3	0	3	338	0.00	30.435 
15:20	37.8	37.8	37.8	71	29.3	0	3	338	0.00	30.435 
15:25	37.9	37.9	37.9	70	29.0	1	7	338	0.00	30.435 
15:30	37.9	37.9	37.9	70	29.0	1	5	112	0.00	30.444 
15:35	37.9	37.9	37.9	70	29.0	1	4	0	0.00	30.444 
15:40	37.9	37.9	37.9	70	29.0	1	5	292	0.00	30.444 
15:45	37.9	37.9	37.9	70	29.0	0	2	338	0.00	30.456 
15:50	37.9	37.9	37.9	69	28.7	1	4	338	0.00	30.456 
15:55	38.0	38.0	38.0	69	28.7	0	3	0	0.00	30.456 
16:00	37.9	37.9	37.9	69	28.7	0	3	0	0.00	30.466 
16:05	37.8	37.8	37.8	68	28.2	0	4	0	0.00	30.466 
16:10	37.8	37.8	37.8	68	28.2	1	4	0	0.00	30.466 
16:15	37.8	37.8	37.8	68	28.2	0	3	338	0.00	30.476 
16:20	37.8	37.8	37.8	68	28.2	1	3	315	0.00	30.476 
16:25	37.9	37.9	37.9	68	28.3	1	3	315	0.00	30.476 
16:30	37.8	37.8	37.8	68	28.2	0	2	315	0.00	30.487 
16:35	37.8	37.8	37.8	67	27.8	1	4	315	0.00	30.487 
16:40	37.8	37.8	37.8	67	27.8	0	1	338	0.00	30.487 
16:45	37.6	37.6	37.6	67	27.7	0	1	338	0.00	30.491 
16:50	37.5	37.5	37.5	68	27.9	0	3	338	0.00	30.491 
16:55	37.3	37.3	37.3	67	27.4	0	3	338	0.00	30.491 
17:00	37.2	37.2	37.2	67	27.3	0	1	338	0.00	30.499 
17:05	37.0	37.0	37.0	68	27.4	0	2	338	0.00	30.499 
17:10	36.8	36.8	36.8	68	27.2	0	1	338	0.00	30.499 
17:15	36.6	36.6	36.6	68	27.1	0	1	338	0.00	30.508 
17:20	36.5	36.5	36.5	68	27.0	0	1	338	0.00	30.508 
17:25	36.3	36.3	36.3	68	26.8	0	1	338	0.00	30.508 
17:30	36.0	36.0	36.0	68	26.5	0	0	---	0.00	30.513 
17:35	35.8	35.8	35.8	69	26.6	0	0	---	0.00	30.513 
17:40	35.5	35.5	35.5	69	26.4	0	0	---	0.00	30.513 
17:45	35.3	35.3	35.3	69	26.2	0	0	---	0.00	30.516 
17:50	34.9	34.9	34.9	69	25.8	0	0	---	0.00	30.516 
17:55	34.6	34.6	34.6	70	25.8	0	0	---	0.00	30.516 
18:00	34.4	34.4	34.4	71	26.0	0	2	338	0.00	30.517 
18:05	34.3	34.3	34.3	71	25.9	0	1	338	0.00	30.517 
18:10	34.1	34.1	34.1	71	25.7	0	0	---	0.00	30.517 
18:15	34.0	34.0	34.0	71	25.6	0	1	338	0.00	30.520 
18:20	33.8	33.8	33.8	71	25.4	0	0	---	0.00	30.520 
18:25	33.7	33.7	33.7	72	25.7	0	0	---	0.00	30.520 
18:30	33.5	33.5	33.5	72	25.5	0	1	338	0.00	30.527 
18:35	33.4	33.4	33.4	72	25.4	0	0	---	0.00	30.527 
18:40	33.2	33.2	33.2	72	25.2	0	1	338	0.00	30.527 
18:45	33.1	33.1	33.1	72	25.1	0	0	---	0.00	30.532 
18:50	32.9	32.9	32.9	72	24.9	0	1	338	0.00	30.532 
18:55	32.8	32.8	32.8	72	24.8	0	0	---	0.00	30.532 
19:00	32.7	32.7	32.7	72	24.7	0	0	---	0.00	30.542 
19:05	32.4	32.4	32.4	72	24.4	0	0	---	0.00	30.542 
19:10	32.4	32.4	32.4	73	24.7	0	0	---	0.00	30.542 
19:15	32.4	32.4	32.4	73	24.7	0	1	338	0.00	30.556 
19:20	32.2	32.2	32.2	73	24.5	0	0	---	0.00	30.556 
19:25	32.1	32.1	32.1	73	24.4	0	0	---	0.00	30.556 
19:30	31.9	31.9	31.9	73	24.2	0	0	---	0.00	30.567 
19:35	31.6	31.6	31.6	73	24.0	0	0	---	0.00	30.567 
19:40	31.5	31.5	31.5	73	23.9	0	0	---	0.00	30.567 
19:45	31.3	31.3	31.3	74	24.0	0	0	---	0.00	30.573 
19:50	31.2	31.2	31.2	74	23.9	0	0	---	0.00	30.573 
19:55	31.0	31.0	31.0	74	23.7	0	0	---	0.00	30.573 
20:00	31.0	31.0	31.0	74	23.7	0	0	---	0.00	30.576 
20:05	31.0	31.0	31.0	74	23.7	0	0	---	0.00	30.576 
20:10	30.7	30.7	30.7	74	23.4	0	0	---	0.00	30.576 
20:15	30.6	30.6	30.6	75	23.6	0	0	---	0.00	30.583 
20:20	30.3	30.3	30.3	75	23.3	0	0	---	0.00	30.583 
20:25	30.1	30.1	30.1	75	23.2	0	0	---	0.00	30.583 
20:30	29.8	29.8	29.8	75	22.9	0	0	---	0.00	30.589 
20:35	29.7	29.7	29.7	76	23.1	0	0	---	0.00	30.589 
20:40	29.7	29.7	29.7	77	23.4	0	0	---	0.00	30.589 
20:45	29.8	29.8	29.8	77	23.5	0	0	---	0.00	30.592 
20:50	29.8	29.8	29.8	76	23.2	0	0	---	0.00	30.592 
20:55	29.5	29.5	29.5	76	22.9	0	0	---	0.00	30.592 
21:00	29.4	29.4	29.4	76	22.8	0	0	---	0.00	30.590 
21:05	29.3	29.3	29.3	77	23.0	0	0	---	0.00	30.590 
21:10	29.0	29.0	29.0	77	22.7	0	0	---	0.00	30.590 
21:15	28.8	28.8	28.8	77	22.5	0	0	---	0.00	30.591 
21:20	28.5	28.5	28.5	77	22.2	0	0	---	0.00	30.591 
21:25	28.4	28.4	28.4	78	22.4	0	0	---	0.00	30.591 
21:30	28.1	28.1	28.1	78	22.1	0	0	---	0.00	30.596 
21:35	27.9	27.9	27.9	79	22.2	0	0	---	0.00	30.596 
21:40	27.9	27.9	27.9	79	22.2	0	0	---	0.00	30.596 
21:45	27.9	27.9	27.9	79	22.2	0	0	---	0.00	30.609 
21:50	28.1	28.1	28.1	80	22.7	0	0	---	0.00	30.609 
21:55	28.2	28.2	28.2	79	22.5	0	0	---	0.00	30.609 
22:00	28.2	28.2	28.2	79	22.5	0	0	---	0.00	30.610 
22:05	28.1	28.1	28.1	79	22.4	0	0	---	0.00	30.610 
22:10	27.9	27.9	27.9	79	22.2	0	0	---	0.00	30.610 
22:15	27.9	27.9	27.9	79	22.2	0	0	---	0.00	30.607 
22:20	27.8	27.8	27.8	79	22.2	0	0	---	0.00	30.607 
22:25	27.8	27.8	27.8	79	22.2	0	0	---	0.00	30.607 
22:30	27.8	27.8	27.8	79	22.2	0	0	---	0.00	30.608 
22:35	27.6	27.6	27.6	79	22.0	0	0	---	0.00	30.608 
22:40	27.6	27.6	27.6	80	22.3	0	1	338	0.00	30.608 
22:45	27.9	27.9	27.9	79	22.2	0	1	338	0.00	30.608 
22:50	28.1	28.1	28.1	78	22.1	0	0	---	0.00	30.608 
22:55	28.1	28.1	28.1	78	22.1	0	1	338	0.00	30.608 
23:00	28.1	28.1	28.1	78	22.1	0	0	---	0.00	30.610 
23:05	28.2	28.2	28.2	77	21.9	0	1	338	0.00	30.610 
23:10	28.4	28.4	28.4	76	21.8	0	1	338	0.00	30.610 
23:15	28.5	28.5	28.5	75	21.6	0	2	338	0.00	30.611 
23:20	28.7	28.7	28.7	74	21.5	0	1	338	0.00	30.611 
23:25	29.0	29.0	29.0	72	21.1	0	2	338	0.00	30.611 
23:30	29.0	29.0	29.0	71	20.8	0	1	338	0.00	30.617 
23:35	29.1	29.1	29.1	71	20.9	0	2	338	0.00	30.617 
23:40	29.1	29.1	29.1	70	20.6	0	1	338	0.00	30.617 
23:45	29.1	29.1	29.1	69	20.2	0	1	338	0.00	30.619 
23:50	29.1	29.1	29.1	69	20.2	0	1	338	0.00	30.619 
23:55	29.1	29.1	29.1	68	19.9	0	1	338	0.00	30.619 

CoCoRaHS
IN-AL-39
A2 Web Hosting
Creative Commons License
GoDaddy
search engine by freefind advanced

loaded 2018-11-13 23:44:09 • last modified 2010-11-18 10:43:29
Privacy PolicyDisclaimer
• wx.awcolley.com is powered by PmWiki v.2002016 •
• all content (unless otherwise noted) © 2018 A W Colley